Flat Springs, North Carolina
Current Conditions -  °F | °C
As of 9:35 AM on Thursday 30 Oct 2014 (Local Time) from KTNB Reporting Station
Clear Clear  
Wind Chill: 39°   Ceiling: Unl
Heat Index: 44°   Visibility: 10mi
Dew Point: 33°   Wind: 8mph
Humidity: 66%   Direction: 280°W
Pressure: 30.08"   Gusts: NA
Location:  36.1731°N, 81.9572°W
Report Text: KTNB 301335Z AUTO 28007KT 10SM CLR 07/01 A3008 RMK AO2 T00650006
Loading
Personal Weather Stations






























Interactive Weather Map
Tropical Storm Tracking
New forecast layout! Learn more

10-Day Weather Forecast

Advertisements
Track Severe Weather on mobile